createdAt,value
2023-02-14T00:00:15.266Z,3.44
2023-02-14T00:03:03.691Z,3.46
2023-02-14T00:05:36.498Z,3.49
2023-02-14T00:08:04.845Z,3.50
2023-02-14T00:10:33.181Z,3.48
2023-02-14T00:13:01.609Z,3.46
2023-02-14T00:15:30.045Z,3.46
2023-02-14T00:18:01.638Z,3.47
2023-02-14T00:20:30.131Z,3.49
2023-02-14T00:23:01.136Z,3.49
2023-02-14T00:25:29.492Z,3.49
2023-02-14T00:27:57.786Z,3.49
2023-02-14T00:30:26.300Z,3.49
2023-02-14T00:32:54.766Z,3.50
2023-02-14T00:35:23.070Z,3.51
2023-02-14T00:37:51.396Z,3.51
2023-02-14T00:40:21.319Z,3.50
2023-02-14T00:42:49.603Z,3.48
2023-02-14T00:45:19.246Z,3.47
2023-02-14T00:47:47.499Z,3.47
2023-02-14T00:50:15.929Z,3.47
2023-02-14T00:52:44.287Z,3.47
2023-02-14T00:55:12.646Z,3.47
2023-02-14T00:57:41.501Z,3.46
2023-02-14T01:00:10.448Z,3.46
2023-02-14T01:02:38.863Z,3.46
2023-02-14T01:05:07.629Z,3.46
2023-02-14T01:07:37.880Z,3.46
2023-02-14T01:10:06.783Z,3.47
2023-02-14T01:12:35.127Z,3.45
2023-02-14T01:15:03.532Z,3.43
2023-02-14T01:17:31.891Z,3.43
2023-02-14T01:20:00.241Z,3.45
2023-02-14T01:22:28.784Z,3.46
2023-02-14T01:24:57.104Z,3.45
2023-02-14T01:27:25.567Z,3.41
2023-02-14T01:29:58.686Z,3.40
2023-02-14T01:32:31.415Z,3.41
2023-02-14T01:35:00.535Z,3.43
2023-02-14T01:37:30.776Z,3.43
2023-02-14T01:39:59.274Z,3.41
2023-02-14T01:42:27.672Z,3.40
2023-02-14T01:45:03.694Z,3.42
2023-02-14T01:47:37.761Z,3.43
2023-02-14T01:50:22.663Z,3.44
2023-02-14T01:52:55.718Z,3.42
2023-02-14T01:55:30.355Z,3.39
2023-02-14T01:58:21.981Z,3.38
2023-02-14T02:01:00.331Z,3.36
2023-02-14T02:03:56.098Z,3.38
2023-02-14T02:06:31.576Z,3.39
2023-02-14T02:09:29.402Z,3.40
2023-02-14T02:11:57.870Z,3.38
2023-02-14T02:14:26.318Z,3.37
2023-02-14T02:16:57.820Z,3.36
2023-02-14T02:19:38.641Z,3.38
2023-02-14T02:22:37.881Z,3.40
2023-02-14T02:25:15.451Z,3.41
2023-02-14T02:28:03.548Z,3.42
2023-02-14T02:31:18.433Z,3.40
2023-02-14T02:34:15.188Z,3.39
2023-02-14T02:36:51.990Z,3.43
2023-02-14T02:39:33.344Z,3.46
2023-02-14T02:42:08.785Z,3.46
2023-02-14T02:45:09.172Z,3.44
2023-02-14T02:47:54.254Z,3.42
2023-02-14T02:50:45.885Z,3.42
2023-02-14T02:53:30.259Z,3.43
2023-02-14T02:56:22.363Z,3.43
2023-02-14T02:58:56.870Z,3.41
2023-02-14T03:01:31.202Z,3.38
2023-02-14T03:04:22.396Z,3.36
2023-02-14T03:06:52.262Z,3.35
2023-02-14T03:09:20.589Z,3.35
2023-02-14T03:12:17.049Z,3.34
2023-02-14T03:14:51.666Z,3.34
2023-02-14T03:18:00.987Z,3.33
2023-02-14T03:21:07.127Z,3.33
2023-02-14T03:23:44.329Z,3.34
2023-02-14T03:26:27.642Z,3.34
2023-02-14T03:29:16.695Z,3.33
2023-02-14T03:31:51.937Z,3.33
2023-02-14T03:34:28.391Z,3.32
2023-02-14T03:37:07.009Z,3.33
2023-02-14T03:39:53.084Z,3.35
2023-02-14T03:42:31.060Z,3.36
2023-02-14T03:45:02.527Z,3.35
2023-02-14T03:47:34.464Z,3.32
2023-02-14T03:50:13.477Z,3.29
2023-02-14T03:52:44.367Z,3.28
2023-02-14T03:55:17.700Z,3.29
2023-02-14T03:57:59.835Z,3.29
2023-02-14T04:00:31.094Z,3.28
2023-02-14T04:03:06.852Z,3.28
2023-02-14T04:05:35.838Z,3.30
2023-02-14T04:08:04.350Z,3.30
2023-02-14T04:10:32.798Z,3.30
2023-02-14T04:13:01.111Z,3.28
2023-02-14T04:15:29.976Z,3.27
2023-02-14T04:18:17.233Z,3.26
2023-02-14T04:20:45.578Z,3.28
2023-02-14T04:23:13.982Z,3.26
2023-02-14T04:25:43.134Z,3.25
2023-02-14T04:28:12.580Z,3.25
2023-02-14T04:30:41.187Z,3.25
2023-02-14T04:33:10.742Z,3.26
2023-02-14T04:35:39.188Z,3.26
2023-02-14T04:38:07.792Z,3.27
2023-02-14T04:40:36.132Z,3.26
2023-02-14T04:43:04.745Z,3.24
2023-02-14T04:45:33.246Z,3.24
2023-02-14T04:48:01.585Z,3.25
2023-02-14T04:50:30.772Z,3.26
2023-02-14T04:52:59.181Z,3.27
2023-02-14T04:55:27.692Z,3.26
2023-02-14T04:57:56.470Z,3.26
2023-02-14T05:00:25.630Z,3.28
2023-02-14T05:02:54.689Z,3.30
2023-02-14T05:05:23.234Z,3.31
2023-02-14T05:07:51.591Z,3.29
2023-02-14T05:10:20.114Z,3.28
2023-02-14T05:12:51.929Z,3.27
2023-02-14T05:15:20.238Z,3.29
2023-02-14T05:17:48.724Z,3.32
2023-02-14T05:20:17.216Z,3.33
2023-02-14T05:22:45.553Z,3.32
2023-02-14T05:25:13.946Z,3.31
2023-02-14T05:27:42.258Z,3.29
2023-02-14T05:30:11.685Z,3.30
2023-02-14T05:32:40.110Z,3.33
2023-02-14T05:35:08.756Z,3.34
2023-02-14T05:37:37.140Z,3.33
2023-02-14T05:40:08.603Z,3.31
2023-02-14T05:42:37.169Z,3.31
2023-02-14T05:45:06.403Z,3.33
2023-02-14T05:47:34.852Z,3.34
2023-02-14T05:50:04.911Z,3.33
2023-02-14T05:52:33.510Z,3.32
2023-02-14T05:55:02.037Z,3.31
2023-02-14T05:57:30.586Z,3.32
2023-02-14T05:59:59.041Z,3.33
2023-02-14T06:02:28.233Z,3.33
2023-02-14T06:04:56.667Z,3.31
2023-02-14T06:07:25.164Z,3.28
2023-02-14T06:09:53.592Z,3.27
2023-02-14T06:12:22.098Z,3.30
2023-02-14T06:14:50.788Z,3.32
2023-02-14T06:17:19.204Z,3.35
2023-02-14T06:19:51.023Z,3.36
2023-02-14T06:22:22.358Z,3.37
2023-02-14T06:24:51.068Z,3.39
2023-02-14T06:27:19.603Z,3.42
2023-02-14T06:29:48.737Z,3.45
2023-02-14T06:32:19.134Z,3.47
2023-02-14T06:34:47.624Z,3.47
2023-02-14T06:37:16.533Z,3.48
2023-02-14T06:39:45.465Z,3.50
2023-02-14T06:42:14.650Z,3.51
2023-02-14T06:44:43.188Z,3.53
2023-02-14T06:47:11.745Z,3.52
2023-02-14T06:49:40.176Z,3.52
2023-02-14T06:52:08.724Z,3.53
2023-02-14T06:54:37.193Z,3.56
2023-02-14T06:57:05.807Z,3.57
2023-02-14T06:59:34.380Z,3.57
2023-02-14T07:02:03.987Z,3.57
2023-02-14T07:04:32.430Z,3.56
2023-02-14T07:07:01.594Z,3.57
2023-02-14T07:09:30.188Z,3.59
2023-02-14T07:11:58.793Z,3.61
2023-02-14T07:14:27.377Z,3.63
2023-02-14T07:16:58.543Z,3.65
2023-02-14T07:19:27.059Z,3.67
2023-02-14T07:21:55.579Z,3.68
2023-02-14T07:24:24.584Z,3.71
2023-02-14T07:26:53.004Z,3.75
2023-02-14T07:29:21.565Z,3.77
2023-02-14T07:31:50.260Z,3.77
2023-02-14T07:34:18.832Z,3.77
2023-02-14T07:36:47.330Z,3.76
2023-02-14T07:39:15.842Z,3.76
2023-02-14T07:41:44.526Z,3.76
2023-02-14T07:44:13.093Z,3.77
2023-02-14T07:46:41.546Z,3.77
2023-02-14T07:49:10.178Z,3.77
2023-02-14T07:51:38.855Z,3.78
2023-02-14T07:54:07.273Z,3.80
2023-02-14T07:56:35.723Z,3.84
2023-02-14T07:59:04.382Z,3.88
2023-02-14T08:01:33.004Z,3.92
2023-02-14T08:04:01.541Z,3.96
2023-02-14T08:06:30.090Z,3.99
2023-02-14T08:08:58.751Z,4.00
2023-02-14T08:11:46.496Z,4.05
2023-02-14T08:14:15.469Z,4.07
2023-02-14T08:16:44.063Z,4.10
2023-02-14T08:19:12.599Z,4.10
2023-02-14T08:21:41.101Z,4.11
2023-02-14T08:24:09.748Z,4.14
2023-02-14T08:26:38.254Z,4.17
2023-02-14T08:29:06.747Z,4.19
2023-02-14T08:31:36.592Z,4.22
2023-02-14T08:34:05.904Z,4.23
2023-02-14T08:36:35.511Z,4.24
2023-02-14T08:39:05.665Z,4.27
2023-02-14T08:41:34.770Z,4.28
2023-02-14T08:44:03.970Z,4.30
2023-02-14T08:46:32.547Z,4.35
2023-02-14T08:49:01.113Z,4.40
2023-02-14T08:51:29.836Z,4.42
2023-02-14T08:53:58.438Z,4.42
2023-02-14T08:56:27.170Z,4.44
2023-02-14T08:58:55.660Z,4.48
2023-02-14T09:01:24.299Z,4.52
2023-02-14T09:03:53.009Z,4.56
2023-02-14T09:06:21.560Z,4.57
2023-02-14T09:08:52.137Z,4.58
2023-02-14T09:11:23.731Z,4.59
2023-02-14T09:13:53.494Z,4.58
2023-02-14T09:16:23.803Z,4.59
2023-02-14T09:18:53.214Z,4.62
2023-02-14T09:21:28.011Z,4.64
2023-02-14T09:23:57.131Z,4.69
2023-02-14T09:26:25.697Z,4.74
2023-02-14T09:28:54.615Z,4.79
2023-02-14T09:31:25.352Z,4.84
2023-02-14T09:33:53.944Z,4.94
2023-02-14T09:36:41.184Z,5.01
2023-02-14T09:39:09.873Z,5.11
2023-02-14T09:42:05.710Z,5.16
2023-02-14T09:44:51.781Z,5.13
2023-02-14T09:47:40.529Z,5.14
2023-02-14T09:50:27.944Z,5.20
2023-02-14T09:53:07.159Z,5.25
2023-02-14T09:55:50.778Z,5.29
2023-02-14T09:58:30.329Z,5.33
2023-02-14T10:01:15.820Z,5.37
2023-02-14T10:04:19.063Z,5.35
2023-02-14T10:06:59.206Z,5.36
2023-02-14T10:09:59.634Z,5.34
2023-02-14T10:12:28.507Z,5.34
2023-02-14T10:15:04.968Z,5.33
2023-02-14T10:17:41.966Z,5.28
2023-02-14T10:20:32.696Z,5.25
2023-02-14T10:23:35.448Z,5.24
2023-02-14T10:26:10.810Z,5.21
2023-02-14T10:28:49.427Z,5.20
2023-02-14T10:31:32.288Z,5.19
2023-02-14T10:34:12.497Z,5.22
2023-02-14T10:36:50.115Z,5.23
2023-02-14T10:39:27.708Z,5.22
2023-02-14T10:42:03.722Z,5.17
2023-02-14T10:44:53.981Z,5.15
2023-02-14T10:47:40.465Z,5.14
2023-02-14T10:50:15.662Z,5.17
2023-02-14T10:52:59.599Z,5.16
2023-02-14T10:55:38.474Z,5.16
2023-02-14T10:58:13.877Z,5.18
2023-02-14T11:01:02.653Z,5.23
2023-02-14T11:03:35.692Z,5.30
2023-02-14T11:06:04.312Z,5.33
2023-02-14T11:08:39.362Z,5.31
2023-02-14T11:11:26.657Z,5.28
2023-02-14T11:13:55.348Z,5.32
2023-02-14T11:16:35.975Z,5.38
2023-02-14T11:19:15.953Z,5.44
2023-02-14T11:21:47.048Z,5.48
2023-02-14T11:24:37.087Z,5.53
2023-02-14T11:27:19.325Z,5.49
2023-02-14T11:29:52.621Z,5.48
2023-02-14T11:32:24.537Z,5.56
2023-02-14T11:35:02.448Z,5.59
2023-02-14T11:37:37.171Z,5.59
2023-02-14T11:40:06.965Z,5.59
2023-02-14T11:42:46.570Z,5.59
2023-02-14T11:45:32.430Z,5.64
2023-02-14T11:48:17.723Z,5.73
2023-02-14T11:51:11.086Z,5.81
2023-02-14T11:53:52.631Z,5.84
2023-02-14T11:56:23.493Z,5.82
2023-02-14T11:59:05.879Z,5.73
2023-02-14T12:01:38.918Z,5.70
2023-02-14T12:04:18.817Z,5.71
2023-02-14T12:06:47.401Z,5.68
2023-02-14T12:09:22.259Z,5.66
2023-02-14T12:11:59.521Z,5.63
2023-02-14T12:14:31.543Z,5.65
2023-02-14T12:17:12.024Z,5.67
2023-02-14T12:20:02.366Z,5.72
2023-02-14T12:22:41.950Z,5.75
2023-02-14T12:25:21.698Z,5.71
2023-02-14T12:28:03.694Z,5.70
2023-02-14T12:30:35.404Z,5.75
2023-02-14T12:33:15.500Z,5.85
2023-02-14T12:36:31.172Z,5.91
2023-02-14T12:39:08.645Z,5.88
2023-02-14T12:41:43.201Z,5.78
2023-02-14T12:44:20.663Z,5.68
2023-02-14T12:47:02.476Z,5.63
2023-02-14T12:49:59.064Z,5.64
2023-02-14T12:52:59.177Z,5.76
2023-02-14T12:55:33.581Z,5.81
2023-02-14T12:58:39.741Z,5.82
2023-02-14T13:01:28.297Z,5.79
2023-02-14T13:04:17.000Z,5.76
2023-02-14T13:06:56.145Z,5.78
2023-02-14T13:09:50.454Z,5.83
2023-02-14T13:12:38.938Z,5.92
2023-02-14T13:15:15.714Z,6.01
2023-02-14T13:17:56.131Z,6.05
2023-02-14T13:20:56.639Z,6.11
2023-02-14T13:23:38.142Z,6.18
2023-02-14T13:26:13.355Z,6.20
2023-02-14T13:29:11.061Z,6.17
2023-02-14T13:31:41.591Z,6.13
2023-02-14T13:34:39.033Z,6.08
2023-02-14T13:37:12.681Z,6.02
2023-02-14T13:40:18.958Z,6.03
2023-02-14T13:42:50.661Z,6.04
2023-02-14T13:45:40.635Z,6.05
2023-02-14T13:48:22.588Z,6.01
2023-02-14T13:50:56.441Z,5.89
2023-02-14T13:53:46.740Z,5.82
2023-02-14T13:56:15.484Z,5.82
2023-02-14T13:58:57.221Z,5.84
2023-02-14T14:01:39.370Z,5.86
2023-02-14T14:04:27.113Z,5.87
2023-02-14T14:07:05.014Z,5.85
2023-02-14T14:09:42.839Z,5.83
2023-02-14T14:12:26.675Z,5.82
2023-02-14T14:15:07.479Z,5.79
2023-02-14T14:18:09.941Z,5.68
2023-02-14T14:20:48.151Z,5.58
2023-02-14T14:24:02.827Z,5.53
2023-02-14T14:26:36.025Z,5.55
2023-02-14T14:29:26.549Z,5.60
2023-02-14T14:31:58.092Z,5.60
2023-02-14T14:34:28.631Z,5.58
2023-02-14T14:37:15.850Z,5.59
2023-02-14T14:39:51.994Z,5.56
2023-02-14T14:42:22.038Z,5.52
2023-02-14T14:44:54.594Z,5.50
2023-02-14T14:47:29.564Z,5.48
2023-02-14T14:50:07.464Z,5.48
2023-02-14T14:52:39.884Z,5.47
2023-02-14T14:55:17.195Z,5.43
2023-02-14T14:57:52.068Z,5.37
2023-02-14T15:00:28.802Z,5.34
2023-02-14T15:03:12.327Z,5.31
2023-02-14T15:05:44.257Z,5.28
2023-02-14T15:08:32.418Z,5.26
2023-02-14T15:11:41.395Z,5.21
2023-02-14T15:14:16.143Z,5.15
2023-02-14T15:17:03.862Z,5.09
2023-02-14T15:19:38.720Z,5.04
2023-02-14T15:22:19.089Z,5.03
2023-02-14T15:24:48.618Z,5.00
2023-02-14T15:27:21.828Z,4.96
2023-02-14T15:29:56.617Z,4.92
2023-02-14T15:32:27.994Z,4.88
2023-02-14T15:34:57.657Z,4.85
2023-02-14T15:37:26.955Z,4.86
2023-02-14T15:39:57.171Z,4.86
2023-02-14T15:42:33.708Z,4.85
2023-02-14T15:45:16.777Z,4.83
2023-02-14T15:47:49.191Z,4.80
2023-02-14T15:50:35.591Z,4.76
2023-02-14T15:53:04.006Z,4.70
2023-02-14T15:55:33.864Z,4.68
2023-02-14T15:58:14.613Z,4.65
2023-02-14T16:00:45.054Z,4.65
2023-02-14T16:03:21.165Z,4.64
2023-02-14T16:05:50.805Z,4.63
2023-02-14T16:08:29.599Z,4.61
2023-02-14T16:11:15.940Z,4.56
2023-02-14T16:13:47.360Z,4.52
2023-02-14T16:16:17.426Z,4.50
2023-02-14T16:18:52.347Z,4.49
2023-02-14T16:21:24.061Z,4.48
2023-02-14T16:24:08.111Z,4.45
2023-02-14T16:26:39.333Z,4.41
2023-02-14T16:29:13.857Z,4.38
2023-02-14T16:32:14.256Z,4.36
2023-02-14T16:34:38.587Z,4.33
2023-02-14T16:37:18.636Z,4.33
2023-02-14T16:39:47.789Z,4.34
2023-02-14T16:42:18.311Z,4.34
2023-02-14T16:44:47.550Z,4.31
2023-02-14T16:47:18.061Z,4.29
2023-02-14T16:49:47.393Z,4.29
2023-02-14T16:52:23.921Z,4.28
2023-02-14T16:54:53.634Z,4.30
2023-02-14T16:57:37.550Z,4.30
2023-02-14T17:00:07.108Z,4.29
2023-02-14T17:02:35.969Z,4.28
2023-02-14T17:05:05.299Z,4.27
2023-02-14T17:07:33.818Z,4.25
2023-02-14T17:10:07.797Z,4.25
2023-02-14T17:12:40.448Z,4.26
2023-02-14T17:15:16.352Z,4.27
2023-02-14T17:17:47.611Z,4.25
2023-02-14T17:20:16.519Z,4.22
2023-02-14T17:22:45.310Z,4.20
2023-02-14T17:25:14.272Z,4.17
2023-02-14T17:27:44.730Z,4.16
2023-02-14T17:30:15.139Z,4.15
2023-02-14T17:32:44.152Z,4.15
2023-02-14T17:35:14.314Z,4.13
2023-02-14T17:37:42.907Z,4.11
2023-02-14T17:40:13.079Z,4.08
2023-02-14T17:42:42.126Z,4.07
2023-02-14T17:45:12.096Z,4.07
2023-02-14T17:47:41.203Z,4.08
2023-02-14T17:50:10.261Z,4.10
2023-02-14T17:52:39.676Z,4.11
2023-02-14T17:55:09.327Z,4.10
2023-02-14T17:57:41.100Z,4.08
2023-02-14T18:00:11.768Z,4.06
2023-02-14T18:02:43.550Z,4.03
2023-02-14T18:05:13.374Z,4.03
2023-02-14T18:07:43.346Z,4.04
2023-02-14T18:10:12.673Z,4.05
2023-02-14T18:12:41.246Z,4.04
2023-02-14T18:15:10.049Z,4.02
2023-02-14T18:17:38.567Z,4.00
2023-02-14T18:20:07.556Z,3.97
2023-02-14T18:22:36.914Z,3.97
2023-02-14T18:25:07.961Z,4.00
2023-02-14T18:27:36.489Z,4.01
2023-02-14T18:30:06.698Z,4.00
2023-02-14T18:32:35.131Z,3.99
2023-02-14T18:35:04.042Z,3.98
2023-02-14T18:37:32.335Z,3.97
2023-02-14T18:40:00.694Z,3.98
2023-02-14T18:42:29.249Z,4.01
2023-02-14T18:44:57.633Z,4.02
2023-02-14T18:47:26.009Z,4.00
2023-02-14T18:49:54.392Z,3.99
2023-02-14T18:52:22.816Z,3.99
2023-02-14T18:54:51.136Z,3.99
2023-02-14T18:57:19.456Z,3.99
2023-02-14T18:59:48.599Z,4.01
2023-02-14T19:02:17.060Z,4.04
2023-02-14T19:04:45.505Z,4.04
2023-02-14T19:07:13.852Z,4.03
2023-02-14T19:09:43.359Z,4.00
2023-02-14T19:12:12.778Z,3.99
2023-02-14T19:14:41.151Z,4.00
2023-02-14T19:17:09.946Z,4.02
2023-02-14T19:19:38.332Z,4.01
2023-02-14T19:22:06.767Z,3.98
2023-02-14T19:24:35.832Z,3.97
2023-02-14T19:27:04.253Z,3.95
2023-02-14T19:29:38.373Z,3.93
2023-02-14T19:32:11.113Z,3.90
2023-02-14T19:34:48.233Z,3.90
2023-02-14T19:37:16.938Z,3.92
2023-02-14T19:39:45.487Z,3.94
2023-02-14T19:42:13.914Z,3.93
2023-02-14T19:44:45.737Z,3.92
2023-02-14T19:47:30.900Z,3.90
2023-02-14T19:50:02.577Z,3.88
2023-02-14T19:52:32.266Z,3.86
2023-02-14T19:55:00.761Z,3.86
2023-02-14T19:57:29.554Z,3.87
2023-02-14T19:59:58.062Z,3.89
2023-02-14T20:02:26.430Z,3.89
2023-02-14T20:04:59.114Z,3.91
2023-02-14T20:07:28.175Z,3.90
2023-02-14T20:09:56.685Z,3.88
2023-02-14T20:12:25.295Z,3.87
2023-02-14T20:14:57.612Z,3.86
2023-02-14T20:17:31.957Z,3.87
2023-02-14T20:20:00.833Z,3.88
2023-02-14T20:22:29.308Z,3.90
2023-02-14T20:24:57.660Z,3.91
2023-02-14T20:27:26.226Z,3.89
2023-02-14T20:29:55.742Z,3.88
2023-02-14T20:32:24.335Z,3.87
2023-02-14T20:34:52.851Z,3.87
2023-02-14T20:37:21.254Z,3.88
2023-02-14T20:39:51.877Z,3.88
2023-02-14T20:42:20.512Z,3.87
2023-02-14T20:44:51.251Z,3.85
2023-02-14T20:47:20.254Z,3.84
2023-02-14T20:50:02.274Z,3.81
2023-02-14T20:52:36.664Z,3.80
2023-02-14T20:55:06.014Z,3.80
2023-02-14T20:57:38.548Z,3.81
2023-02-14T21:00:09.104Z,3.84
2023-02-14T21:02:37.493Z,3.84
2023-02-14T21:05:06.910Z,3.82
2023-02-14T21:07:35.310Z,3.82
2023-02-14T21:10:03.767Z,3.80
2023-02-14T21:12:32.129Z,3.80
2023-02-14T21:15:00.629Z,3.79
2023-02-14T21:17:28.975Z,3.79
2023-02-14T21:19:57.595Z,3.80
2023-02-14T21:22:26.131Z,3.83
2023-02-14T21:24:54.551Z,3.83
2023-02-14T21:27:23.006Z,3.85
2023-02-14T21:29:52.140Z,3.85
2023-02-14T21:32:20.588Z,3.84
2023-02-14T21:34:49.729Z,3.82
2023-02-14T21:37:18.153Z,3.81
2023-02-14T21:39:46.455Z,3.81
2023-02-14T21:42:17.331Z,3.78
2023-02-14T21:45:07.580Z,3.76
2023-02-14T21:47:38.229Z,3.74
2023-02-14T21:50:29.111Z,3.72
2023-02-14T21:52:57.608Z,3.70
2023-02-14T21:55:25.980Z,3.70
2023-02-14T21:57:57.051Z,3.73
2023-02-14T22:00:26.375Z,3.77
2023-02-14T22:02:57.916Z,3.81
2023-02-14T22:05:28.990Z,3.82
2023-02-14T22:07:57.309Z,3.83
2023-02-14T22:10:25.879Z,3.84
2023-02-14T22:12:54.643Z,3.85
2023-02-14T22:15:23.422Z,3.86
2023-02-14T22:17:51.711Z,3.89
2023-02-14T22:20:20.180Z,3.90
2023-02-14T22:22:48.570Z,3.90
2023-02-14T22:25:19.432Z,3.88
2023-02-14T22:27:48.012Z,3.83
2023-02-14T22:30:16.394Z,3.76
2023-02-14T22:32:44.747Z,3.71
2023-02-14T22:35:16.435Z,3.67
2023-02-14T22:37:44.871Z,3.64
2023-02-14T22:40:13.320Z,3.64
2023-02-14T22:42:41.687Z,3.66
2023-02-14T22:45:10.302Z,3.68
2023-02-14T22:47:38.655Z,3.70
2023-02-14T22:50:10.281Z,3.70
2023-02-14T22:52:41.082Z,3.70
2023-02-14T22:55:10.385Z,3.72
2023-02-14T22:57:38.820Z,3.73
2023-02-14T23:00:12.042Z,3.74
2023-02-14T23:02:43.281Z,3.76
2023-02-14T23:05:14.132Z,3.78
2023-02-14T23:07:42.911Z,3.78
2023-02-14T23:10:11.370Z,3.77
2023-02-14T23:12:58.534Z,3.78
2023-02-14T23:15:50.151Z,3.79
2023-02-14T23:18:42.099Z,3.79
2023-02-14T23:21:32.920Z,3.75
2023-02-14T23:24:01.753Z,3.74
2023-02-14T23:26:30.476Z,3.74
2023-02-14T23:28:58.890Z,3.76
2023-02-14T23:31:27.780Z,3.78
2023-02-14T23:34:09.203Z,3.79
2023-02-14T23:36:37.764Z,3.80
2023-02-14T23:39:06.909Z,3.77
2023-02-14T23:41:47.603Z,3.77
2023-02-14T23:44:23.329Z,3.77
2023-02-14T23:46:55.224Z,3.77
2023-02-14T23:49:25.288Z,3.79
2023-02-14T23:51:55.518Z,3.81
2023-02-14T23:54:25.150Z,3.78
2023-02-14T23:56:54.194Z,3.73
2023-02-14T23:59:22.558Z,3.68
